Time;durP1;ratioP1;P1;durP2;ratioP2;P2;SDS_P1;SDS_P2;PMS_P1;PMS_P2;Temp;Humidity;BMP_temperature;BMP_pressure;BME280_temperature;BME280_humidity;BME280_pressure;Samples;Min_cycle;Max_cycle;Signal;HPM_P1;HPM_P2
2023/06/09 00:00:11;;;;;;;;;14.33;13.33;27.10;51.90;;;;;;111362;1238;49401;-64
2023/06/09 00:02:59;;;;;;;;;12.75;11.50;27.10;51.80;;;;;;111167;1238;55590;-64
2023/06/09 00:05:32;;;;;;;;;15.00;14.00;27.10;51.80;;;;;;111277;1238;45273;-64
2023/06/09 00:07:59;;;;;;;;;12.00;11.00;27.10;51.80;;;;;;111176;1238;49034;-64
2023/06/09 00:10:26;;;;;;;;;15.67;13.67;27.20;51.80;;;;;;111291;1242;49568;-63
2023/06/09 00:12:54;;;;;;;;;13.00;12.00;27.20;51.80;;;;;;111278;1238;54155;-65
2023/06/09 00:15:21;;;;;;;;;13.75;12.75;27.10;51.70;;;;;;111303;1239;44199;-63
2023/06/09 00:17:48;;;;;;;;;16.00;14.00;27.10;52.30;;;;;;111294;1238;49490;-64
2023/06/09 00:20:15;;;;;;;;;15.67;12.67;27.10;51.70;;;;;;111316;1239;48890;-64
2023/06/09 00:22:43;;;;;;;;;17.75;15.00;27.10;51.80;;;;;;111259;1238;53581;-63
2023/06/09 00:25:13;;;;;;;;;16.00;13.00;27.10;52.00;;;;;;111265;1243;45138;-64
2023/06/09 00:27:40;;;;;;;;;13.25;12.25;27.10;51.80;;;;;;111405;1241;48982;-64
2023/06/09 00:30:08;;;;;;;;;14.25;13.00;27.10;51.80;;;;;;111476;1242;49672;-64
2023/06/09 00:32:35;;;;;;;;;14.50;13.50;27.10;51.80;;;;;;111405;1238;54150;-62
2023/06/09 00:35:03;;;;;;;;;16.00;13.50;27.10;51.30;;;;;;111402;1241;45013;-63
2023/06/09 00:37:32;;;;;;;;;13.00;12.00;27.10;51.80;;;;;;111154;1243;49530;-63
2023/06/09 00:39:59;;;;;;;;;14.75;13.75;27.10;51.80;;;;;;111214;1243;49533;-63
2023/06/09 00:42:26;;;;;;;;;14.33;13.00;27.10;51.70;;;;;;111450;1241;54479;-64
2023/06/09 00:44:53;;;;;;;;;13.75;12.50;27.10;51.80;;;;;;111247;1238;44399;-64
2023/06/09 00:47:20;;;;;;;;;15.50;14.50;27.00;51.70;;;;;;111266;1239;49530;-64
2023/06/09 00:49:47;;;;;;;;;15.25;14.00;27.10;51.80;;;;;;111205;1244;49603;-64
2023/06/09 00:52:15;;;;;;;;;13.25;12.00;27.10;51.90;;;;;;111201;1239;56289;-66
2023/06/09 00:54:42;;;;;;;;;12.00;11.00;27.10;51.70;;;;;;111341;1239;44420;-62
2023/06/09 00:57:10;;;;;;;;;13.25;12.50;27.10;51.90;;;;;;111318;1238;50239;-65
2023/06/09 00:59:38;;;;;;;;;13.00;12.00;27.10;51.70;;;;;;111238;1241;49752;-65
2023/06/09 01:02:05;;;;;;;;;17.00;14.00;27.10;51.70;;;;;;111453;1241;53598;-65
2023/06/09 01:04:34;;;;;;;;;12.00;10.75;27.10;51.70;;;;;;111420;1241;44234;-65
2023/06/09 01:07:22;;;;;;;;;14.75;13.75;27.10;51.70;;;;;;111222;1238;49978;-65
2023/06/09 01:10:12;;;;;;;;;13.50;12.25;27.10;51.60;;;;;;111393;1241;49737;-66
2023/06/09 01:12:47;;;;;;;;;13.75;12.75;27.10;51.90;;;;;;111200;1239;53695;-65
2023/06/09 01:15:25;;;;;;;;;14.25;11.75;27.10;51.80;;;;;;111315;1238;44231;-65
2023/06/09 01:17:57;;;;;;;;;12.00;11.00;27.10;51.60;;;;;;111294;1241;49640;-65
2023/06/09 01:21:02;;;;;;;;;14.00;13.00;27.10;51.50;;;;;;111363;1244;49111;-65
2023/06/09 01:24:09;;;;;;;;;15.25;11.25;27.10;51.40;;;;;;110109;1244;1446457;-66
2023/06/09 01:26:40;;;;;;;;;13.75;11.75;27.10;51.40;;;;;;111400;1241;44416;-66
2023/06/09 01:29:08;;;;;;;;;13.50;12.00;27.00;51.50;;;;;;111370;1241;49714;-65
2023/06/09 01:31:36;;;;;;;;;14.25;11.25;27.10;51.90;;;;;;111201;1243;49727;-66
2023/06/09 01:34:04;;;;;;;;;13.33;12.00;27.00;51.40;;;;;;111185;1243;53258;-65
2023/06/09 01:36:32;;;;;;;;;13.75;12.50;27.00;51.40;;;;;;111218;1244;45742;-67
2023/06/09 01:39:00;;;;;;;;;15.25;14.00;27.00;51.40;;;;;;111215;1238;50295;-66
2023/06/09 01:41:27;;;;;;;;;12.25;11.25;27.00;51.40;;;;;;111282;1241;49050;-65
2023/06/09 01:43:54;;;;;;;;;14.33;11.67;27.00;51.40;;;;;;111200;1240;53870;-65
2023/06/09 01:46:21;;;;;;;;;12.67;11.67;27.00;51.60;;;;;;111251;1238;44908;-65
2023/06/09 01:49:06;;;;;;;;;15.00;13.50;27.00;51.40;;;;;;111211;1242;49670;-65
2023/06/09 01:51:43;;;;;;;;;14.33;11.00;27.00;51.50;;;;;;111126;1243;49536;-65
2023/06/09 01:54:15;;;;;;;;;14.00;12.75;27.00;51.40;;;;;;111234;1243;53776;-64
2023/06/09 01:56:44;;;;;;;;;13.75;12.50;27.00;51.20;;;;;;111275;1238;44445;-66
2023/06/09 01:59:15;;;;;;;;;13.00;12.00;27.10;51.40;;;;;;111483;1241;48983;-66
2023/06/09 02:01:43;;;;;;;;;14.75;13.75;27.00;51.10;;;;;;111175;1238;49686;-65
2023/06/09 02:04:11;;;;;;;;;15.67;11.00;27.00;51.10;;;;;;111166;1241;54041;-65
2023/06/09 02:06:40;;;;;;;;;11.50;10.50;27.00;51.10;;;;;;111171;1240;44503;-64
2023/06/09 02:09:09;;;;;;;;;14.25;11.25;27.00;51.30;;;;;;111238;1241;49076;-64
2023/06/09 02:11:37;;;;;;;;;13.75;12.75;27.00;51.10;;;;;;111210;1243;50488;-65
2023/06/09 02:14:04;;;;;;;;;12.00;11.25;27.00;51.10;;;;;;111343;1238;54202;-65
2023/06/09 02:16:31;;;;;;;;;11.00;10.00;27.00;51.10;;;;;;111373;1238;44867;-65
2023/06/09 02:18:58;;;;;;;;;14.00;11.00;27.00;51.20;;;;;;111205;1238;48907;-64
2023/06/09 02:21:25;;;;;;;;;13.00;12.00;27.00;51.30;;;;;;111225;1243;49072;-67
2023/06/09 02:23:52;;;;;;;;;14.00;13.00;27.00;51.40;;;;;;111145;1239;54144;-65
2023/06/09 02:26:20;;;;;;;;;12.50;11.50;26.90;51.30;;;;;;111241;1238;44377;-65
2023/06/09 02:28:47;;;;;;;;;14.25;11.25;26.90;51.10;;;;;;111244;1243;49020;-64
2023/06/09 02:31:14;;;;;;;;;15.00;14.00;27.00;51.20;;;;;;111252;1243;48961;-65
2023/06/09 02:33:42;;;;;;;;;14.50;12.50;27.00;51.10;;;;;;111207;1243;53524;-65
2023/06/09 02:36:13;;;;;;;;;13.00;12.00;27.00;51.20;;;;;;111195;1243;44536;-66
2023/06/09 02:38:40;;;;;;;;;14.00;12.33;26.90;51.10;;;;;;111245;1244;48922;-66
2023/06/09 02:41:07;;;;;;;;;12.33;11.00;26.90;51.00;;;;;;111174;1243;50257;-65
2023/06/09 02:43:34;;;;;;;;;15.00;12.75;27.00;51.10;;;;;;111288;1237;54190;-66
2023/06/09 02:46:01;;;;;;;;;13.00;12.00;26.90;51.00;;;;;;111241;1240;45218;-65
2023/06/09 02:48:28;;;;;;;;;14.50;13.50;26.90;51.00;;;;;;111198;1240;49288;-64
2023/06/09 02:50:55;;;;;;;;;12.00;11.00;26.90;51.00;;;;;;111218;1241;49116;-66
2023/06/09 02:53:22;;;;;;;;;11.00;10.00;26.90;51.00;;;;;;111327;1239;53558;-67
2023/06/09 02:55:49;;;;;;;;;13.00;12.00;26.90;51.00;;;;;;111351;1238;44640;-65
2023/06/09 02:58:16;;;;;;;;;12.00;11.00;26.90;51.10;;;;;;111214;1243;49254;-66
2023/06/09 03:00:47;;;;;;;;;12.00;11.00;26.90;51.00;;;;;;111222;1243;49335;-66
2023/06/09 03:03:14;;;;;;;;;12.25;11.25;26.90;51.20;;;;;;111333;1240;53441;-65
2023/06/09 03:05:43;;;;;;;;;11.75;10.75;26.90;51.30;;;;;;111321;1238;44509;-66
2023/06/09 03:08:11;;;;;;;;;11.75;10.50;26.90;51.00;;;;;;111238;1243;49118;-64
2023/06/09 03:10:37;;;;;;;;;11.67;10.67;26.90;51.00;;;;;;111184;1243;49852;-65
2023/06/09 03:13:05;;;;;;;;;14.50;13.00;26.90;50.90;;;;;;111222;1241;54652;-65
2023/06/09 03:15:32;;;;;;;;;13.00;12.00;26.90;50.90;;;;;;111240;1239;45269;-66
2023/06/09 03:17:58;;;;;;;;;10.75;9.50;26.90;51.00;;;;;;111319;1243;49614;-66
2023/06/09 03:20:25;;;;;;;;;13.00;12.00;26.90;50.90;;;;;;111343;1244;48879;-67
2023/06/09 03:22:52;;;;;;;;;11.67;11.00;26.90;50.90;;;;;;111433;1241;54747;-67
2023/06/09 03:25:20;;;;;;;;;12.00;11.50;26.90;50.90;;;;;;111273;1243;45509;-68
2023/06/09 03:27:47;;;;;;;;;14.67;13.67;26.90;50.90;;;;;;111196;1244;48915;-68
2023/06/09 03:30:14;;;;;;;;;12.00;10.75;26.90;50.90;;;;;;111242;1243;49382;-66
2023/06/09 03:32:41;;;;;;;;;11.00;10.00;26.90;50.90;;;;;;111205;1243;54687;-67
2023/06/09 03:35:09;;;;;;;;;11.00;10.00;26.90;50.90;;;;;;111202;1243;44299;-65
2023/06/09 03:37:36;;;;;;;;;14.00;13.00;26.90;50.90;;;;;;111200;1239;49223;-63
2023/06/09 03:40:04;;;;;;;;;13.00;12.00;26.90;50.90;;;;;;111359;1243;49308;-62
2023/06/09 03:42:31;;;;;;;;;14.00;13.00;26.80;51.40;;;;;;111266;1243;53323;-62
2023/06/09 03:44:58;;;;;;;;;14.00;12.50;26.90;51.50;;;;;;111226;1243;44734;-62
2023/06/09 03:47:26;;;;;;;;;14.00;13.00;26.80;51.40;;;;;;111226;1238;49697;-63
2023/06/09 03:49:54;;;;;;;;;16.25;15.50;26.90;51.80;;;;;;111227;1240;49753;-63
2023/06/09 03:52:21;;;;;;;;;17.00;14.00;26.90;51.90;;;;;;111258;1243;53655;-62
2023/06/09 03:54:48;;;;;;;;;16.25;14.75;26.90;51.90;;;;;;111295;1241;44309;-61
2023/06/09 03:57:16;;;;;;;;;22.33;17.33;26.80;51.80;;;;;;111416;1238;48830;-64
2023/06/09 03:59:43;;;;;;;;;16.00;13.50;26.90;51.80;;;;;;111238;1238;48943;-61
2023/06/09 04:02:10;;;;;;;;;14.67;14.00;26.90;52.30;;;;;;111270;1239;53574;-62
2023/06/09 04:04:38;;;;;;;;;13.50;12.50;26.90;52.20;;;;;;111370;1243;44204;-64
2023/06/09 04:07:05;;;;;;;;;15.00;14.00;26.80;52.20;;;;;;111233;1240;49658;-65
2023/06/09 04:09:34;;;;;;;;;15.00;14.00;26.80;52.30;;;;;;111178;1243;49335;-63
2023/06/09 04:12:01;;;;;;;;;13.00;12.00;26.80;52.70;;;;;;111338;1243;53780;-61
2023/06/09 04:14:28;;;;;;;;;15.25;12.25;26.80;53.00;;;;;;111446;1238;44171;-62
2023/06/09 04:16:55;;;;;;;;;15.00;14.00;26.80;52.60;;;;;;111265;1243;49398;-61
2023/06/09 04:19:22;;;;;;;;;16.00;15.00;26.80;52.70;;;;;;111405;1240;49336;-65
2023/06/09 04:21:49;;;;;;;;;16.25;15.00;26.90;52.80;;;;;;111213;1243;54275;-63
2023/06/09 04:24:17;;;;;;;;;18.50;16.00;26.90;52.70;;;;;;111340;1243;44083;-62
2023/06/09 04:26:44;;;;;;;;;16.00;14.00;26.80;52.60;;;;;;111198;1238;49200;-62
2023/06/09 04:29:11;;;;;;;;;16.00;15.00;26.80;52.70;;;;;;111191;1243;49349;-68
2023/06/09 04:31:39;;;;;;;;;15.00;14.00;26.90;53.00;;;;;;111280;1239;53683;-63
2023/06/09 04:34:10;;;;;;;;;25.25;17.00;26.90;52.70;;;;;;111251;1243;45573;-65
2023/06/09 04:36:38;;;;;;;;;18.00;15.67;26.80;52.30;;;;;;111337;1239;50460;-64
2023/06/09 04:39:07;;;;;;;;;13.50;12.50;26.80;52.10;;;;;;111326;1244;49182;-66
2023/06/09 04:41:34;;;;;;;;;20.33;18.00;26.80;52.30;;;;;;111387;1240;54114;-62
2023/06/09 04:44:06;;;;;;;;;18.00;16.00;26.80;52.40;;;;;;111316;1238;45413;-62
2023/06/09 04:46:37;;;;;;;;;16.00;15.00;26.80;52.10;;;;;;111366;1243;50154;-63
2023/06/09 04:49:11;;;;;;;;;19.00;16.00;26.80;52.30;;;;;;111291;1243;49708;-64
2023/06/09 04:51:46;;;;;;;;;18.00;17.00;26.70;52.20;;;;;;111412;1243;54072;-64
2023/06/09 04:54:15;;;;;;;;;16.50;15.50;26.70;52.50;;;;;;111315;1243;44676;-65
2023/06/09 04:56:44;;;;;;;;;18.75;14.75;26.60;52.40;;;;;;111396;1243;49593;-66
2023/06/09 04:59:11;;;;;;;;;17.25;15.00;26.60;52.50;;;;;;111327;1243;49775;-64
2023/06/09 05:01:39;;;;;;;;;15.75;14.75;26.70;52.50;;;;;;111338;1244;53806;-65
2023/06/09 05:04:07;;;;;;;;;17.25;15.00;26.70;52.90;;;;;;111530;1238;44365;-65
2023/06/09 05:06:36;;;;;;;;;17.75;15.50;26.60;52.70;;;;;;111449;1244;49528;-65
2023/06/09 05:09:07;;;;;;;;;15.67;14.33;26.70;52.60;;;;;;111434;1243;49945;-65
2023/06/09 05:11:35;;;;;;;;;17.67;15.00;26.70;52.40;;;;;;111506;1238;53653;-65
2023/06/09 05:14:04;;;;;;;;;19.67;15.00;26.70;52.40;;;;;;111382;1243;44180;-65
2023/06/09 05:16:33;;;;;;;;;19.50;15.75;26.70;52.90;;;;;;111362;1238;50948;-65
2023/06/09 05:19:01;;;;;;;;;17.00;16.00;26.70;52.80;;;;;;111334;1244;49416;-66
2023/06/09 05:21:27;;;;;;;;;22.50;17.50;26.70;52.80;;;;;;111416;1240;55555;-66
2023/06/09 05:23:55;;;;;;;;;15.75;14.75;26.70;53.20;;;;;;111436;1238;45201;-65
2023/06/09 05:26:22;;;;;;;;;22.00;17.00;26.70;53.10;;;;;;111858;1238;49253;-66
2023/06/09 05:28:49;;;;;;;;;16.00;15.00;26.60;52.80;;;;;;111367;1239;48957;-65
2023/06/09 05:31:19;;;;;;;;;16.25;14.25;26.60;53.00;;;;;;111355;1238;54038;-65
2023/06/09 05:33:46;;;;;;;;;15.67;13.67;26.60;52.90;;;;;;111518;1238;44404;-64
2023/06/09 05:36:13;;;;;;;;;17.00;16.00;26.60;53.10;;;;;;111460;1243;49586;-65
2023/06/09 05:38:41;;;;;;;;;18.67;14.67;26.60;53.40;;;;;;111446;1241;49816;-65
2023/06/09 05:41:09;;;;;;;;;19.00;17.00;26.60;53.40;;;;;;111385;1243;54640;-65
2023/06/09 05:43:36;;;;;;;;;17.50;14.75;26.60;53.30;;;;;;111342;1243;44463;-65
2023/06/09 05:46:03;;;;;;;;;16.50;15.50;26.60;53.20;;;;;;111338;1243;49565;-65
2023/06/09 05:48:30;;;;;;;;;20.00;17.25;26.60;53.00;;;;;;111337;1243;49427;-65
2023/06/09 05:50:57;;;;;;;;;18.00;17.00;26.50;53.00;;;;;;111286;1243;53183;-66
2023/06/09 05:53:25;;;;;;;;;16.00;15.33;26.50;52.80;;;;;;111305;1240;44950;-64
2023/06/09 05:55:53;;;;;;;;;16.67;15.67;26.50;53.60;;;;;;111351;1240;48967;-65
2023/06/09 05:58:20;;;;;;;;;18.00;15.00;26.50;53.80;;;;;;111342;1238;50388;-65
2023/06/09 06:00:49;;;;;;;;;18.00;17.00;26.50;53.90;;;;;;111329;1241;53536;-64
2023/06/09 06:03:16;;;;;;;;;16.00;15.00;26.50;53.50;;;;;;111389;1239;45070;-65
2023/06/09 06:05:44;;;;;;;;;18.00;16.25;26.50;53.80;;;;;;111306;1243;49026;-65
2023/06/09 06:08:11;;;;;;;;;18.25;14.00;26.50;53.80;;;;;;111543;1238;48958;-65
2023/06/09 06:10:38;;;;;;;;;19.00;14.50;26.50;53.90;;;;;;111454;1238;53507;-65
2023/06/09 06:13:05;;;;;;;;;15.50;13.50;26.50;54.10;;;;;;111286;1240;44741;-66
2023/06/09 06:15:32;;;;;;;;;15.25;14.25;26.50;54.10;;;;;;111421;1238;49431;-66
2023/06/09 06:17:59;;;;;;;;;20.25;19.25;26.50;54.20;;;;;;111445;1238;49774;-66
2023/06/09 06:20:26;;;;;;;;;17.00;15.75;26.50;54.20;;;;;;111295;1243;53374;-65
2023/06/09 06:22:54;;;;;;;;;18.75;16.00;26.50;54.10;;;;;;111452;1243;44728;-66
2023/06/09 06:25:23;;;;;;;;;19.50;17.00;26.50;54.50;;;;;;111323;1243;49348;-62
2023/06/09 06:27:50;;;;;;;;;16.50;15.50;26.50;54.40;;;;;;111443;1238;49788;-62
2023/06/09 06:30:17;;;;;;;;;17.50;16.50;26.50;54.50;;;;;;111473;1239;53981;-63
2023/06/09 06:32:51;;;;;;;;;22.25;17.50;26.50;55.00;;;;;;111535;1241;44512;-66
2023/06/09 06:35:23;;;;;;;;;16.00;15.00;26.50;55.70;;;;;;111460;1239;49795;-63
2023/06/09 06:37:50;;;;;;;;;18.75;14.00;26.50;55.60;;;;;;111299;1243;49855;-63
2023/06/09 06:40:17;;;;;;;;;18.00;15.00;26.50;55.70;;;;;;111490;1241;54379;-62
2023/06/09 06:42:44;;;;;;;;;16.00;15.00;26.50;55.20;;;;;;111424;1237;44866;-64
2023/06/09 06:45:12;;;;;;;;;18.75;17.75;26.50;55.50;;;;;;111550;1241;49108;-63
2023/06/09 06:47:43;;;;;;;;;16.00;15.00;26.50;55.30;;;;;;111437;1241;49295;-62
2023/06/09 06:50:11;;;;;;;;;18.33;16.00;26.60;55.40;;;;;;111338;1238;53507;-62
2023/06/09 06:52:38;;;;;;;;;21.50;14.75;26.60;55.20;;;;;;111448;1239;44784;-62
2023/06/09 06:55:07;;;;;;;;;17.00;13.00;26.70;55.00;;;;;;111457;1239;50569;-62
2023/06/09 06:57:38;;;;;;;;;15.00;14.00;26.70;55.20;;;;;;111371;1240;49286;-62
2023/06/09 07:00:14;;;;;;;;;19.00;15.00;26.70;55.40;;;;;;111536;1241;53931;-63
2023/06/09 07:02:43;;;;;;;;;14.00;13.00;26.80;55.20;;;;;;111364;1243;45201;-64
2023/06/09 07:05:10;;;;;;;;;14.25;12.00;26.80;55.60;;;;;;111578;1240;49307;-62
2023/06/09 07:07:37;;;;;;;;;16.00;15.00;26.80;55.20;;;;;;111559;1241;48973;-61
2023/06/09 07:10:05;;;;;;;;;18.25;13.75;26.90;55.20;;;;;;111417;1243;54035;-64
2023/06/09 07:12:32;;;;;;;;;16.50;15.75;26.90;55.40;;;;;;111501;1243;45202;-64
2023/06/09 07:14:59;;;;;;;;;15.00;14.00;26.90;55.10;;;;;;111368;1243;49385;-63
2023/06/09 07:17:26;;;;;;;;;18.00;16.00;26.90;55.20;;;;;;111322;1239;50789;-65
2023/06/09 07:19:53;;;;;;;;;16.00;15.00;27.00;55.00;;;;;;111566;1240;53695;-65
2023/06/09 07:22:20;;;;;;;;;18.25;15.75;27.00;54.80;;;;;;111476;1243;44786;-64
2023/06/09 07:24:47;;;;;;;;;17.50;14.75;27.00;55.10;;;;;;111437;1243;49057;-61
2023/06/09 07:27:15;;;;;;;;;16.33;15.33;27.00;55.00;;;;;;111327;1239;51263;-62
2023/06/09 07:29:43;;;;;;;;;19.00;16.25;27.10;55.40;;;;;;111250;1243;53453;-62
2023/06/09 07:32:10;;;;;;;;;15.75;13.00;27.10;55.20;;;;;;111406;1240;44399;-61
2023/06/09 07:34:37;;;;;;;;;17.75;16.50;27.10;55.20;;;;;;111647;1239;48804;-63
2023/06/09 07:37:05;;;;;;;;;18.25;17.00;27.10;55.20;;;;;;111445;1239;48998;-62
2023/06/09 07:39:35;;;;;;;;;15.75;15.00;27.20;55.30;;;;;;111367;1243;53483;-60
2023/06/09 07:42:02;;;;;;;;;13.50;11.50;27.30;55.20;;;;;;111380;1241;44232;-61
2023/06/09 07:44:29;;;;;;;;;16.00;14.00;27.30;54.90;;;;;;111435;1238;49141;-61
2023/06/09 07:46:56;;;;;;;;;15.00;13.50;27.40;55.20;;;;;;111617;1238;49911;-62
2023/06/09 07:49:23;;;;;;;;;16.00;13.25;27.40;54.70;;;;;;111359;1238;54081;-61
2023/06/09 07:51:51;;;;;;;;;16.25;15.25;27.40;54.80;;;;;;111325;1243;44293;-61
2023/06/09 07:54:18;;;;;;;;;17.25;15.75;27.40;54.60;;;;;;111511;1238;49658;-63
2023/06/09 07:56:48;;;;;;;;;14.00;13.00;27.50;54.60;;;;;;111458;1242;50076;-61
2023/06/09 07:59:18;;;;;;;;;18.25;15.75;27.50;54.50;;;;;;111426;1239;54896;-60
2023/06/09 08:01:46;;;;;;;;;17.75;15.00;27.50;54.50;;;;;;111473;1241;45106;-62
2023/06/09 08:04:13;;;;;;;;;17.25;13.25;27.50;54.30;;;;;;111270;1238;48766;-63
2023/06/09 08:06:41;;;;;;;;;17.50;16.50;27.50;54.30;;;;;;111231;1243;49545;-62
2023/06/09 08:09:09;;;;;;;;;16.00;15.00;27.50;54.50;;;;;;111405;1238;53879;-61
2023/06/09 08:11:38;;;;;;;;;15.00;14.00;27.50;54.80;;;;;;111239;1240;45651;-61
2023/06/09 08:14:08;;;;;;;;;16.00;15.00;27.60;54.10;;;;;;111262;1239;49208;-62
2023/06/09 08:16:35;;;;;;;;;18.50;15.00;27.60;54.00;;;;;;111413;1237;50017;-62
2023/06/09 08:19:02;;;;;;;;;18.00;15.67;27.60;54.10;;;;;;111406;1241;54453;-61
2023/06/09 08:21:29;;;;;;;;;15.75;14.75;27.60;53.90;;;;;;111209;1238;44326;-62
2023/06/09 08:23:56;;;;;;;;;18.33;17.67;27.60;53.80;;;;;;111333;1241;49556;-62
2023/06/09 08:26:23;;;;;;;;;19.00;18.00;27.70;53.90;;;;;;111274;1239;49619;-64
2023/06/09 08:28:50;;;;;;;;;20.50;17.50;27.70;54.20;;;;;;111368;1241;53824;-66
2023/06/09 08:31:17;;;;;;;;;20.50;16.25;27.70;54.10;;;;;;111467;1238;45734;-64
2023/06/09 08:33:44;;;;;;;;;18.75;15.75;27.70;53.10;;;;;;111260;1240;49568;-64
2023/06/09 08:36:12;;;;;;;;;16.50;15.50;27.70;53.10;;;;;;111458;1241;49153;-63
2023/06/09 08:38:39;;;;;;;;;20.00;17.00;27.70;53.20;;;;;;111507;1237;54194;-62
2023/06/09 08:41:08;;;;;;;;;18.75;17.75;27.70;52.90;;;;;;111305;1241;44187;-62
2023/06/09 08:43:37;;;;;;;;;22.33;18.33;27.80;52.50;;;;;;111437;1241;49232;-62
2023/06/09 08:46:06;;;;;;;;;19.75;17.00;27.80;53.40;;;;;;111405;1241;50339;-61
2023/06/09 08:48:37;;;;;;;;;16.50;15.50;27.80;52.80;;;;;;111193;1243;53988;-63
2023/06/09 08:51:05;;;;;;;;;19.50;17.00;27.90;53.00;;;;;;111298;1238;44587;-62
2023/06/09 08:53:32;;;;;;;;;16.25;15.25;27.90;53.00;;;;;;111466;1241;49150;-63
2023/06/09 08:56:00;;;;;;;;;18.00;17.00;27.90;53.20;;;;;;111219;1241;49195;-61
2023/06/09 08:58:27;;;;;;;;;16.50;14.00;28.00;53.40;;;;;;111198;1243;53870;-62
2023/06/09 09:00:54;;;;;;;;;18.00;16.75;28.00;53.20;;;;;;111357;1238;44370;-65
2023/06/09 09:03:22;;;;;;;;;22.00;20.75;28.00;52.60;;;;;;111341;1243;49024;-64
2023/06/09 09:05:50;;;;;;;;;17.00;15.67;28.00;53.30;;;;;;111341;1243;49250;-64
2023/06/09 09:08:19;;;;;;;;;18.00;16.75;28.00;52.90;;;;;;111219;1242;53244;-63
2023/06/09 09:10:46;;;;;;;;;18.00;15.00;28.00;52.90;;;;;;111392;1238;45441;-63
2023/06/09 09:13:14;;;;;;;;;16.00;15.00;28.00;53.10;;;;;;111289;1243;50499;-62
2023/06/09 09:15:48;;;;;;;;;15.25;14.25;28.00;53.30;;;;;;111421;1240;49360;-62
2023/06/09 09:18:17;;;;;;;;;20.00;17.00;28.00;53.40;;;;;;111429;1237;54554;-67
2023/06/09 09:20:44;;;;;;;;;15.00;14.00;28.00;53.10;;;;;;111355;1241;45313;-68
2023/06/09 09:23:11;;;;;;;;;16.67;15.67;28.00;52.40;;;;;;111165;1238;49601;-67
2023/06/09 09:25:38;;;;;;;;;17.75;15.75;28.00;51.40;;;;;;111409;1243;50592;-67
2023/06/09 09:28:07;;;;;;;;;17.50;16.50;28.10;51.50;;;;;;111231;1238;54142;-67
2023/06/09 09:30:43;;;;;;;;;17.00;16.00;28.10;51.20;;;;;;113303;1239;44269;-68
2023/06/09 09:33:15;;;;;;;;;19.25;15.25;28.20;51.10;;;;;;113323;1243;49894;-67
2023/06/09 09:35:48;;;;;;;;;19.50;15.25;28.30;50.20;;;;;;111454;1243;50672;-66
2023/06/09 09:38:18;;;;;;;;;18.67;17.33;28.60;50.10;;;;;;111341;1238;54396;-65
2023/06/09 09:40:59;;;;;;;;;14.75;13.75;28.70;50.20;;;;;;111487;1238;44374;-66
2023/06/09 09:43:28;;;;;;;;;20.25;17.00;28.70;50.20;;;;;;111211;1239;49468;-65
2023/06/09 09:45:59;;;;;;;;;16.00;15.00;28.70;50.30;;;;;;111213;1239;49673;-66
2023/06/09 09:48:26;;;;;;;;;19.00;17.00;28.60;50.00;;;;;;111520;1240;54167;-65
2023/06/09 09:50:55;;;;;;;;;16.25;15.25;28.60;49.60;;;;;;111499;1243;45297;-65
2023/06/09 09:53:23;;;;;;;;;16.00;15.00;28.60;49.30;;;;;;111585;1241;49992;-67
2023/06/09 09:55:53;;;;;;;;;19.25;17.00;28.50;50.10;;;;;;111720;1238;49529;-67
2023/06/09 09:58:27;;;;;;;;;18.75;17.75;28.50;49.70;;;;;;111460;1238;54265;-65
2023/06/09 10:00:57;;;;;;;;;20.67;19.00;28.50;49.50;;;;;;111247;1240;44030;-63
2023/06/09 10:03:25;;;;;;;;;17.00;15.00;28.50;49.30;;;;;;111246;1241;49491;-62
2023/06/09 10:05:55;;;;;;;;;17.50;16.25;28.50;49.50;;;;;;111453;1238;49691;-66
2023/06/09 10:08:26;;;;;;;;;15.75;14.75;28.50;49.20;;;;;;111314;1240;53717;-64
2023/06/09 10:11:01;;;;;;;;;18.25;17.25;28.50;49.50;;;;;;111450;1241;44698;-62
2023/06/09 10:13:29;;;;;;;;;18.33;17.33;28.50;50.50;;;;;;111301;1243;48941;-63
2023/06/09 10:15:57;;;;;;;;;21.00;20.00;28.50;50.60;;;;;;111282;1243;48896;-63
2023/06/09 10:18:24;;;;;;;;;16.50;15.50;28.50;50.80;;;;;;111338;1239;53648;-64
2023/06/09 10:20:53;;;;;;;;;16.50;15.50;28.40;51.70;;;;;;111480;1238;44419;-64
2023/06/09 10:23:21;;;;;;;;;19.67;18.67;28.40;51.30;;;;;;111393;1239;49267;-62
2023/06/09 10:25:49;;;;;;;;;19.00;17.67;28.40;51.30;;;;;;111285;1238;49682;-65
2023/06/09 10:28:18;;;;;;;;;17.67;16.67;28.40;51.00;;;;;;111497;1241;54712;-67
2023/06/09 10:30:46;;;;;;;;;15.00;14.00;28.40;50.80;;;;;;111408;1243;45679;-68
2023/06/09 10:33:31;;;;;;;;;16.75;15.50;28.40;50.40;;;;;;111414;1239;49584;-65
2023/06/09 10:36:00;;;;;;;;;15.75;14.00;28.40;50.50;;;;;;111534;1238;49567;-66
2023/06/09 10:38:39;;;;;;;;;17.00;15.00;28.40;50.50;;;;;;111403;1238;53292;-63
2023/06/09 10:41:28;;;;;;;;;18.00;16.33;28.50;50.60;;;;;;111282;1239;44746;-65
2023/06/09 10:44:26;;;;;;;;;16.50;15.75;28.50;49.90;;;;;;111299;1240;50316;-64
2023/06/09 10:46:54;;;;;;;;;19.00;16.75;28.50;49.90;;;;;;111333;1243;49175;-66
2023/06/09 10:49:37;;;;;;;;;18.00;17.00;28.50;50.90;;;;;;111221;1238;53835;-66
2023/06/09 10:52:06;;;;;;;;;23.25;18.00;28.50;51.30;;;;;;111416;1241;45067;-64
2023/06/09 10:54:35;;;;;;;;;17.00;15.33;28.50;51.60;;;;;;111343;1243;50148;-64
2023/06/09 10:57:04;;;;;;;;;18.00;16.00;28.50;51.80;;;;;;111527;1238;49711;-66
2023/06/09 10:59:31;;;;;;;;;16.00;14.50;28.50;51.90;;;;;;111250;1240;54479;-64
2023/06/09 11:02:04;;;;;;;;;20.00;17.67;28.50;52.10;;;;;;111213;1243;44436;-63
2023/06/09 11:04:41;;;;;;;;;16.75;15.75;28.50;52.30;;;;;;111413;1243;50122;-64
2023/06/09 11:07:12;;;;;;;;;18.00;16.67;28.50;52.40;;;;;;111424;1243;49904;-63
2023/06/09 11:09:40;;;;;;;;;16.25;15.25;28.50;52.30;;;;;;111341;1240;53768;-63
2023/06/09 11:12:46;;;;;;;;;18.00;15.00;28.50;52.50;;;;;;111261;1238;46450;-64
2023/06/09 11:15:17;;;;;;;;;18.75;16.00;28.50;51.10;;;;;;111333;1239;48886;-63
2023/06/09 11:18:16;;;;;;;;;15.00;13.75;28.60;51.20;;;;;;111338;1239;50561;-64
2023/06/09 11:20:43;;;;;;;;;18.67;15.67;28.60;51.30;;;;;;111230;1241;53142;-64
2023/06/09 11:23:10;;;;;;;;;16.75;15.75;28.60;50.30;;;;;;111354;1241;44598;-64
2023/06/09 11:25:38;;;;;;;;;19.25;15.75;28.60;50.90;;;;;;111347;1241;49304;-63
2023/06/09 11:28:05;;;;;;;;;17.33;14.67;28.60;50.20;;;;;;111329;1240;49111;-64
2023/06/09 11:30:33;;;;;;;;;15.75;14.75;28.60;50.30;;;;;;111228;1240;54050;-61
2023/06/09 11:33:01;;;;;;;;;19.25;16.25;28.60;50.20;;;;;;111400;1238;45086;-65
2023/06/09 11:35:28;;;;;;;;;15.75;14.75;28.60;49.60;;;;;;111398;1240;49191;-63
2023/06/09 11:37:56;;;;;;;;;21.00;16.25;28.50;49.70;;;;;;111323;1238;49813;-63
2023/06/09 11:40:28;;;;;;;;;15.75;14.75;28.50;49.60;;;;;;111238;1243;54887;-62
2023/06/09 11:42:56;;;;;;;;;15.00;14.00;28.50;49.70;;;;;;111322;1243;44909;-66
2023/06/09 11:45:24;;;;;;;;;17.75;16.00;28.50;49.60;;;;;;111229;1238;48936;-67
2023/06/09 11:47:59;;;;;;;;;19.50;15.50;28.50;49.70;;;;;;111230;1241;49274;-65
2023/06/09 11:50:44;;;;;;;;;16.75;15.25;28.50;49.30;;;;;;111450;1241;53441;-63
2023/06/09 11:53:13;;;;;;;;;20.50;18.00;28.40;49.00;;;;;;111457;1241;44626;-64
2023/06/09 11:55:40;;;;;;;;;15.25;14.00;28.40;49.40;;;;;;111377;1241;49615;-62
2023/06/09 11:58:10;;;;;;;;;15.67;14.67;28.40;49.80;;;;;;111375;1242;49562;-63
2023/06/09 12:00:41;;;;;;;;;16.33;14.00;28.40;49.50;;;;;;111342;1239;53740;-64
2023/06/09 12:03:09;;;;;;;;;14.25;13.25;28.40;49.60;;;;;;111507;1240;44347;-63
2023/06/09 12:05:37;;;;;;;;;16.50;15.50;28.40;49.90;;;;;;111411;1238;49279;-62
2023/06/09 12:08:11;;;;;;;;;17.75;15.50;28.40;49.50;;;;;;111294;1238;49863;-63
2023/06/09 12:10:38;;;;;;;;;20.50;17.25;28.40;49.30;;;;;;111380;1241;53809;-64
2023/06/09 12:13:06;;;;;;;;;26.00;21.00;28.40;49.60;;;;;;111275;1238;44497;-64
2023/06/09 12:15:34;;;;;;;;;28.67;23.00;28.40;50.50;;;;;;111518;1241;49019;-63
2023/06/09 12:18:02;;;;;;;;;21.00;18.75;28.40;51.00;;;;;;111312;1240;50635;-63
2023/06/09 12:20:37;;;;;;;;;24.75;18.75;28.40;51.10;;;;;;111368;1241;54013;-64
2023/06/09 12:23:12;;;;;;;;;27.50;21.75;28.40;51.30;;;;;;111254;1240;44895;-63
2023/06/09 12:25:41;;;;;;;;;22.75;19.00;28.40;51.50;;;;;;111464;1238;49337;-65
2023/06/09 12:28:24;;;;;;;;;24.50;17.00;28.40;51.30;;;;;;111391;1243;50474;-63